Hamer, SC (29547)

6:28 PM EDT on July 29, 2014 (GMT -0400)
Cottingham Creek (KSCBENNE4) Elev 143 ft | 34.60 °N, 79.63 °W | Change Station

Current weather conditions updated 46 seconds ago

Clear
Clear
83.6 °F
Feels Like 85 °F
N
0.0
Wind Variable Wind from ENE
Gusts 1.0 mph

Tomorrow is forecast to be nearly the same temperature as today.

Today
High -- | Low -- °F
--% Chance of Precip.
Yesterday
High -- | Low -- °F
Precip. -- in
6:25 AM 8:21 PM
Waxing Crescent, 8% visible
Pressure 29.92 in
Visibility 10.0 miles
Clouds Clear
Heat Index 85 °F
Dew Point 65 °F
Humidity 54%
Rainfall 0.00 in
Snow Depth Not available.
UV 3 out of 12
Pollen 4.50 out of 12
Ozone Good
PM2.5 Good
Flu Activity Not available.
METAR KMEB 292152Z AUTO 30009KT 10SM CLR 29/13 A2993 RMK AO2 SLP132 T02940133 TSNO

More Conditions Fewer Conditions

Pressure 29.92 in
Visibility 10.0 miles
Clouds Clear
Heat Index 85 °F
Dew Point 65 °F
Humidity 54%
Rainfall 0.00 in
Snow Depth Not available.
UV 3 out of 12
Pollen 4.50 out of 12
Ozone Good
PM2.5 Good
Flu Activity Not available.
METAR KMEB 292152Z AUTO 30009KT 10SM CLR 29/13 A2993 RMK AO2 SLP132 T02940133 TSNO

More Conditions Fewer Conditions

10-Day Weather Forecast

Almanac

Astronomy

Jul. 29, 2014 Rise Set
Actual Time 6:25 AM EDT 8:21 PM EDT
Civil Twilight 5:58 AM EDT 8:49 PM EDT
Nautical Twilight 5:24 AM EDT 9:23 PM EDT
Astronomical Twilight 4:48 AM EDT 9:59 PM EDT
Moon 8:52 AM EDT 9:43 PM EDT
Length of Visible Light 14h 51m
Length of Day
13h 56m
Tomorrow will be 1m 33s shorter.
Waxing Crescent, 8% of the Moon is Illuminated
Today
Waxing Crescent
Aug 3
First Quarter
Aug 10
Full
Aug 17
Last Quarter
Aug 25
New

Today's Extremes

State Highs State Lows

Community

WunderPhotos

Upload Photos

1,738,887 photos uploaded!

Nearby

Air Quality

  Air Quality AQ Index Pollutant
Yesterday Moderate
PM2.5
Yesterday Good
OZONE
Current Good
PM2.5
Current Good
OZONE
Tuesday Good
OZONE
Wednesday Good
OZONE

Snow Depth

Station Depth Elevation
No new snow has been reported.

Earthquake Activity

City Distance Mag. Time & Date
No recent earthquake activity has been reported nearby.
Minimum magnitude displayed is 2.5.

Coastal Water Temperatures

Place Temperature
No Stations Reporting

Nearby Weather Stations

Station Location Temp. Heat Index Dew Point Humidity Wind Precip. Elev Updated Type
Cottingham Creek, Bennettsville, SC 83.6 °F 85 °F 65 °F 54% ENE  at  0.0 mph 0.00 in / hr 143 ft 6:28 PM EDT Rapid Fire
RAWS LUMBERTON NC, Lumberton, NC 84 °F 84 °F 59 °F 43% North  at  3 mph 0.00 in / hr 120 ft 5:40 PM EDT MADIS
Mechanicsville, Darlington, SC 83.5 °F 86 °F 66 °F 55% ENE  at  2.0 mph 0.00 in / hr 144 ft 6:28 PM EDT Rapid Fire

Show More Stations Show Fewer Stations